sensor_id;sensor_type;location;lat;lon;timestamp;P1;durP1;ratioP1;P2;durP2;ratioP2
61702;SDS011;47622;47.726;3.298;2023-05-20T00:01:07;6.15;;;2.90;;
61702;SDS011;47622;47.726;3.298;2023-05-20T00:03:33;8.40;;;2.83;;
61702;SDS011;47622;47.726;3.298;2023-05-20T00:05:58;4.05;;;3.17;;
61702;SDS011;47622;47.726;3.298;2023-05-20T00:08:24;8.85;;;3.20;;
61702;SDS011;47622;47.726;3.298;2023-05-20T00:10:49;5.15;;;2.92;;
61702;SDS011;47622;47.726;3.298;2023-05-20T00:13:15;4.68;;;3.10;;
61702;SDS011;47622;47.726;3.298;2023-05-20T00:15:40;6.70;;;3.20;;
61702;SDS011;47622;47.726;3.298;2023-05-20T00:18:06;5.82;;;3.70;;
61702;SDS011;47622;47.726;3.298;2023-05-20T00:20:32;6.50;;;3.55;;
61702;SDS011;47622;47.726;3.298;2023-05-20T00:22:57;7.45;;;3.13;;
61702;SDS011;47622;47.726;3.298;2023-05-20T00:25:24;6.72;;;3.38;;
61702;SDS011;47622;47.726;3.298;2023-05-20T00:27:51;7.72;;;3.30;;
61702;SDS011;47622;47.726;3.298;2023-05-20T00:30:16;4.88;;;3.55;;
61702;SDS011;47622;47.726;3.298;2023-05-20T00:32:42;11.07;;;4.18;;
61702;SDS011;47622;47.726;3.298;2023-05-20T00:35:08;5.47;;;3.75;;
61702;SDS011;47622;47.726;3.298;2023-05-20T00:37:34;8.32;;;3.28;;
61702;SDS011;47622;47.726;3.298;2023-05-20T00:40:00;6.97;;;3.53;;
61702;SDS011;47622;47.726;3.298;2023-05-20T00:42:26;7.13;;;3.42;;
61702;SDS011;47622;47.726;3.298;2023-05-20T00:44:53;6.18;;;3.55;;
61702;SDS011;47622;47.726;3.298;2023-05-20T00:47:24;9.05;;;3.67;;
61702;SDS011;47622;47.726;3.298;2023-05-20T00:49:52;6.00;;;3.70;;
61702;SDS011;47622;47.726;3.298;2023-05-20T00:52:18;5.35;;;3.60;;
61702;SDS011;47622;47.726;3.298;2023-05-20T00:54:45;6.65;;;3.60;;
61702;SDS011;47622;47.726;3.298;2023-05-20T00:57:11;5.57;;;3.70;;
61702;SDS011;47622;47.726;3.298;2023-05-20T00:59:37;9.32;;;3.60;;
61702;SDS011;47622;47.726;3.298;2023-05-20T01:02:04;9.98;;;4.15;;
61702;SDS011;47622;47.726;3.298;2023-05-20T01:04:30;5.30;;;3.63;;
61702;SDS011;47622;47.726;3.298;2023-05-20T01:06:56;5.22;;;3.50;;
61702;SDS011;47622;47.726;3.298;2023-05-20T01:09:25;7.20;;;3.75;;
61702;SDS011;47622;47.726;3.298;2023-05-20T01:12:34;5.38;;;3.72;;
61702;SDS011;47622;47.726;3.298;2023-05-20T01:15:18;5.55;;;3.78;;
61702;SDS011;47622;47.726;3.298;2023-05-20T01:20:06;5.72;;;3.78;;
61702;SDS011;47622;47.726;3.298;2023-05-20T01:22:45;6.78;;;3.55;;
61702;SDS011;47622;47.726;3.298;2023-05-20T01:25:12;7.60;;;3.90;;
61702;SDS011;47622;47.726;3.298;2023-05-20T01:27:37;5.18;;;3.70;;
61702;SDS011;47622;47.726;3.298;2023-05-20T01:30:03;9.45;;;3.72;;
61702;SDS011;47622;47.726;3.298;2023-05-20T01:32:47;6.13;;;3.42;;
61702;SDS011;47622;47.726;3.298;2023-05-20T01:35:16;8.52;;;3.67;;
61702;SDS011;47622;47.726;3.298;2023-05-20T01:37:42;6.45;;;3.90;;
61702;SDS011;47622;47.726;3.298;2023-05-20T01:40:09;6.93;;;3.85;;
61702;SDS011;47622;47.726;3.298;2023-05-20T01:42:39;7.22;;;3.95;;
61702;SDS011;47622;47.726;3.298;2023-05-20T01:45:07;6.15;;;3.85;;
61702;SDS011;47622;47.726;3.298;2023-05-20T01:47:33;7.72;;;4.60;;
61702;SDS011;47622;47.726;3.298;2023-05-20T01:49:58;8.13;;;4.20;;
61702;SDS011;47622;47.726;3.298;2023-05-20T01:52:24;8.02;;;4.07;;
61702;SDS011;47622;47.726;3.298;2023-05-20T01:54:50;5.18;;;3.53;;
61702;SDS011;47622;47.726;3.298;2023-05-20T01:57:19;8.68;;;4.40;;
61702;SDS011;47622;47.726;3.298;2023-05-20T01:59:45;6.07;;;4.10;;
61702;SDS011;47622;47.726;3.298;2023-05-20T02:02:11;6.63;;;3.97;;
61702;SDS011;47622;47.726;3.298;2023-05-20T02:04:37;6.10;;;4.28;;
61702;SDS011;47622;47.726;3.298;2023-05-20T02:07:03;7.25;;;3.97;;
61702;SDS011;47622;47.726;3.298;2023-05-20T02:09:28;8.15;;;4.05;;
61702;SDS011;47622;47.726;3.298;2023-05-20T02:11:54;9.15;;;4.07;;
61702;SDS011;47622;47.726;3.298;2023-05-20T02:14:19;8.95;;;4.22;;
61702;SDS011;47622;47.726;3.298;2023-05-20T02:16:45;10.00;;;4.10;;
61702;SDS011;47622;47.726;3.298;2023-05-20T02:19:11;6.75;;;4.25;;
61702;SDS011;47622;47.726;3.298;2023-05-20T02:21:40;9.23;;;4.30;;
61702;SDS011;47622;47.726;3.298;2023-05-20T02:24:06;6.20;;;3.67;;
61702;SDS011;47622;47.726;3.298;2023-05-20T02:26:33;7.55;;;4.03;;
61702;SDS011;47622;47.726;3.298;2023-05-20T02:28:59;9.52;;;4.30;;
61702;SDS011;47622;47.726;3.298;2023-05-20T02:31:24;6.93;;;3.85;;
61702;SDS011;47622;47.726;3.298;2023-05-20T02:33:50;6.57;;;3.85;;
61702;SDS011;47622;47.726;3.298;2023-05-20T02:36:17;6.15;;;3.95;;
61702;SDS011;47622;47.726;3.298;2023-05-20T02:38:43;7.70;;;4.15;;
61702;SDS011;47622;47.726;3.298;2023-05-20T02:41:08;8.50;;;3.90;;
61702;SDS011;47622;47.726;3.298;2023-05-20T02:43:34;9.27;;;3.90;;
61702;SDS011;47622;47.726;3.298;2023-05-20T02:46:01;8.73;;;4.10;;
61702;SDS011;47622;47.726;3.298;2023-05-20T02:48:27;6.78;;;4.10;;
61702;SDS011;47622;47.726;3.298;2023-05-20T02:50:53;6.85;;;4.72;;
61702;SDS011;47622;47.726;3.298;2023-05-20T02:53:18;5.00;;;3.92;;
61702;SDS011;47622;47.726;3.298;2023-05-20T02:55:45;6.97;;;4.07;;
61702;SDS011;47622;47.726;3.298;2023-05-20T02:58:14;5.22;;;3.90;;
61702;SDS011;47622;47.726;3.298;2023-05-20T03:00:41;5.93;;;4.13;;
61702;SDS011;47622;47.726;3.298;2023-05-20T03:03:08;6.97;;;4.32;;
61702;SDS011;47622;47.726;3.298;2023-05-20T03:05:37;7.47;;;4.20;;
61702;SDS011;47622;47.726;3.298;2023-05-20T03:08:06;5.97;;;4.05;;
61702;SDS011;47622;47.726;3.298;2023-05-20T03:10:33;8.80;;;4.80;;
61702;SDS011;47622;47.726;3.298;2023-05-20T03:13:03;7.60;;;3.97;;
61702;SDS011;47622;47.726;3.298;2023-05-20T03:15:33;8.98;;;4.43;;
61702;SDS011;47622;47.726;3.298;2023-05-20T03:18:01;8.55;;;4.05;;
61702;SDS011;47622;47.726;3.298;2023-05-20T03:20:26;8.05;;;3.97;;
61702;SDS011;47622;47.726;3.298;2023-05-20T03:22:54;7.10;;;4.43;;
61702;SDS011;47622;47.726;3.298;2023-05-20T03:25:20;5.75;;;4.20;;
61702;SDS011;47622;47.726;3.298;2023-05-20T03:27:46;8.93;;;4.60;;
61702;SDS011;47622;47.726;3.298;2023-05-20T03:30:12;5.00;;;3.58;;
61702;SDS011;47622;47.726;3.298;2023-05-20T03:32:38;7.78;;;4.47;;
61702;SDS011;47622;47.726;3.298;2023-05-20T03:35:04;7.53;;;4.25;;
61702;SDS011;47622;47.726;3.298;2023-05-20T03:37:30;10.57;;;4.45;;
61702;SDS011;47622;47.726;3.298;2023-05-20T03:39:56;9.60;;;4.13;;
61702;SDS011;47622;47.726;3.298;2023-05-20T03:42:22;7.53;;;4.38;;
61702;SDS011;47622;47.726;3.298;2023-05-20T03:44:49;10.55;;;4.40;;
61702;SDS011;47622;47.726;3.298;2023-05-20T03:47:14;5.95;;;3.60;;
61702;SDS011;47622;47.726;3.298;2023-05-20T03:49:40;6.25;;;4.00;;
61702;SDS011;47622;47.726;3.298;2023-05-20T03:52:06;7.53;;;4.22;;
61702;SDS011;47622;47.726;3.298;2023-05-20T03:54:31;5.40;;;3.88;;
61702;SDS011;47622;47.726;3.298;2023-05-20T03:56:59;6.53;;;3.88;;
61702;SDS011;47622;47.726;3.298;2023-05-20T03:59:25;7.70;;;4.05;;
61702;SDS011;47622;47.726;3.298;2023-05-20T04:01:51;9.00;;;4.13;;
61702;SDS011;47622;47.726;3.298;2023-05-20T04:04:18;7.05;;;4.35;;
61702;SDS011;47622;47.726;3.298;2023-05-20T04:06:43;6.90;;;3.83;;
61702;SDS011;47622;47.726;3.298;2023-05-20T04:09:09;6.97;;;4.00;;
61702;SDS011;47622;47.726;3.298;2023-05-20T04:11:35;5.28;;;3.80;;
61702;SDS011;47622;47.726;3.298;2023-05-20T04:14:01;5.55;;;3.90;;
61702;SDS011;47622;47.726;3.298;2023-05-20T04:16:26;8.40;;;4.47;;
61702;SDS011;47622;47.726;3.298;2023-05-20T04:18:53;5.15;;;3.70;;
61702;SDS011;47622;47.726;3.298;2023-05-20T04:21:19;8.27;;;4.30;;
61702;SDS011;47622;47.726;3.298;2023-05-20T04:23:45;5.40;;;3.92;;
61702;SDS011;47622;47.726;3.298;2023-05-20T04:26:11;6.43;;;4.00;;
61702;SDS011;47622;47.726;3.298;2023-05-20T04:28:37;5.65;;;4.28;;
61702;SDS011;47622;47.726;3.298;2023-05-20T04:31:06;7.53;;;3.88;;
61702;SDS011;47622;47.726;3.298;2023-05-20T04:33:32;6.68;;;3.80;;
61702;SDS011;47622;47.726;3.298;2023-05-20T04:36:02;5.68;;;3.88;;
61702;SDS011;47622;47.726;3.298;2023-05-20T04:38:29;6.05;;;3.92;;
61702;SDS011;47622;47.726;3.298;2023-05-20T04:40:56;5.68;;;3.90;;
61702;SDS011;47622;47.726;3.298;2023-05-20T04:43:25;11.50;;;4.47;;
61702;SDS011;47622;47.726;3.298;2023-05-20T04:45:54;4.97;;;3.78;;
61702;SDS011;47622;47.726;3.298;2023-05-20T04:48:20;6.22;;;4.07;;
61702;SDS011;47622;47.726;3.298;2023-05-20T04:50:46;5.35;;;3.70;;
61702;SDS011;47622;47.726;3.298;2023-05-20T04:53:16;8.00;;;4.00;;
61702;SDS011;47622;47.726;3.298;2023-05-20T04:55:42;10.13;;;4.35;;
61702;SDS011;47622;47.726;3.298;2023-05-20T04:58:08;7.13;;;4.25;;
61702;SDS011;47622;47.726;3.298;2023-05-20T05:00:40;5.18;;;4.13;;
61702;SDS011;47622;47.726;3.298;2023-05-20T05:03:06;7.97;;;4.28;;
61702;SDS011;47622;47.726;3.298;2023-05-20T05:05:33;6.88;;;4.07;;
61702;SDS011;47622;47.726;3.298;2023-05-20T05:08:06;7.88;;;4.40;;
61702;SDS011;47622;47.726;3.298;2023-05-20T05:10:33;6.85;;;3.90;;
61702;SDS011;47622;47.726;3.298;2023-05-20T05:12:59;8.05;;;4.40;;
61702;SDS011;47622;47.726;3.298;2023-05-20T05:15:26;8.95;;;4.85;;
61702;SDS011;47622;47.726;3.298;2023-05-20T05:17:52;7.80;;;4.32;;
61702;SDS011;47622;47.726;3.298;2023-05-20T05:20:18;9.85;;;4.10;;
61702;SDS011;47622;47.726;3.298;2023-05-20T05:22:44;9.00;;;4.15;;
61702;SDS011;47622;47.726;3.298;2023-05-20T05:25:10;6.60;;;3.95;;
61702;SDS011;47622;47.726;3.298;2023-05-20T05:27:37;9.25;;;4.30;;
61702;SDS011;47622;47.726;3.298;2023-05-20T05:30:03;10.90;;;4.20;;
61702;SDS011;47622;47.726;3.298;2023-05-20T05:32:30;7.00;;;4.47;;
61702;SDS011;47622;47.726;3.298;2023-05-20T05:34:56;5.45;;;4.00;;
61702;SDS011;47622;47.726;3.298;2023-05-20T05:37:21;8.43;;;3.88;;
61702;SDS011;47622;47.726;3.298;2023-05-20T05:39:47;6.00;;;3.78;;
61702;SDS011;47622;47.726;3.298;2023-05-20T05:42:13;5.88;;;3.70;;
61702;SDS011;47622;47.726;3.298;2023-05-20T05:44:38;9.75;;;4.15;;
61702;SDS011;47622;47.726;3.298;2023-05-20T05:47:05;6.60;;;3.75;;
61702;SDS011;47622;47.726;3.298;2023-05-20T05:49:31;10.02;;;4.55;;
61702;SDS011;47622;47.726;3.298;2023-05-20T05:51:57;11.23;;;4.63;;
61702;SDS011;47622;47.726;3.298;2023-05-20T05:54:22;6.13;;;4.18;;
61702;SDS011;47622;47.726;3.298;2023-05-20T05:56:49;8.18;;;4.10;;
61702;SDS011;47622;47.726;3.298;2023-05-20T05:59:16;9.18;;;3.92;;
61702;SDS011;47622;47.726;3.298;2023-05-20T06:01:41;6.95;;;3.75;;
61702;SDS011;47622;47.726;3.298;2023-05-20T06:04:07;7.30;;;3.70;;
61702;SDS011;47622;47.726;3.298;2023-05-20T06:06:33;6.78;;;3.90;;
61702;SDS011;47622;47.726;3.298;2023-05-20T06:08:58;5.25;;;3.78;;
61702;SDS011;47622;47.726;3.298;2023-05-20T06:11:24;10.00;;;4.80;;
61702;SDS011;47622;47.726;3.298;2023-05-20T06:13:50;5.45;;;3.95;;
61702;SDS011;47622;47.726;3.298;2023-05-20T06:16:16;9.10;;;3.80;;
61702;SDS011;47622;47.726;3.298;2023-05-20T06:18:42;5.95;;;3.90;;
61702;SDS011;47622;47.726;3.298;2023-05-20T06:21:08;8.93;;;3.70;;
61702;SDS011;47622;47.726;3.298;2023-05-20T06:23:33;5.05;;;3.50;;
61702;SDS011;47622;47.726;3.298;2023-05-20T06:25:59;7.80;;;4.00;;
61702;SDS011;47622;47.726;3.298;2023-05-20T06:28:25;6.63;;;3.97;;
61702;SDS011;47622;47.726;3.298;2023-05-20T06:30:52;5.68;;;3.63;;
61702;SDS011;47622;47.726;3.298;2023-05-20T06:33:19;7.43;;;3.50;;
61702;SDS011;47622;47.726;3.298;2023-05-20T06:35:45;6.68;;;3.55;;
61702;SDS011;47622;47.726;3.298;2023-05-20T06:38:11;6.80;;;3.47;;
61702;SDS011;47622;47.726;3.298;2023-05-20T06:40:37;7.43;;;3.83;;
61702;SDS011;47622;47.726;3.298;2023-05-20T06:43:02;8.73;;;3.72;;
61702;SDS011;47622;47.726;3.298;2023-05-20T06:45:28;5.85;;;3.92;;
61702;SDS011;47622;47.726;3.298;2023-05-20T06:47:53;7.18;;;3.80;;
61702;SDS011;47622;47.726;3.298;2023-05-20T06:50:19;7.80;;;3.40;;
61702;SDS011;47622;47.726;3.298;2023-05-20T06:52:45;5.45;;;3.60;;
61702;SDS011;47622;47.726;3.298;2023-05-20T06:55:11;7.03;;;3.17;;
61702;SDS011;47622;47.726;3.298;2023-05-20T06:57:37;8.10;;;3.70;;
61702;SDS011;47622;47.726;3.298;2023-05-20T07:00:03;6.03;;;3.17;;
61702;SDS011;47622;47.726;3.298;2023-05-20T07:02:31;4.40;;;3.15;;
61702;SDS011;47622;47.726;3.298;2023-05-20T07:04:57;6.38;;;3.22;;
61702;SDS011;47622;47.726;3.298;2023-05-20T07:07:23;8.80;;;3.42;;
61702;SDS011;47622;47.726;3.298;2023-05-20T07:09:49;8.07;;;3.20;;
61702;SDS011;47622;47.726;3.298;2023-05-20T07:12:14;6.05;;;3.53;;
61702;SDS011;47622;47.726;3.298;2023-05-20T07:14:40;7.10;;;3.45;;
61702;SDS011;47622;47.726;3.298;2023-05-20T07:17:06;6.18;;;3.70;;
61702;SDS011;47622;47.726;3.298;2023-05-20T07:19:33;5.72;;;3.38;;
61702;SDS011;47622;47.726;3.298;2023-05-20T07:21:59;7.43;;;3.40;;
61702;SDS011;47622;47.726;3.298;2023-05-20T07:24:25;6.40;;;3.30;;
61702;SDS011;47622;47.726;3.298;2023-05-20T07:26:50;7.13;;;3.45;;
61702;SDS011;47622;47.726;3.298;2023-05-20T07:29:16;6.25;;;3.00;;
61702;SDS011;47622;47.726;3.298;2023-05-20T07:31:42;6.35;;;3.35;;
61702;SDS011;47622;47.726;3.298;2023-05-20T07:34:07;6.95;;;3.13;;
61702;SDS011;47622;47.726;3.298;2023-05-20T07:36:33;6.95;;;2.80;;
61702;SDS011;47622;47.726;3.298;2023-05-20T07:38:58;6.10;;;3.50;;
61702;SDS011;47622;47.726;3.298;2023-05-20T07:41:24;5.65;;;2.75;;
61702;SDS011;47622;47.726;3.298;2023-05-20T07:43:50;3.88;;;2.85;;
61702;SDS011;47622;47.726;3.298;2023-05-20T07:46:16;5.57;;;3.40;;
61702;SDS011;47622;47.726;3.298;2023-05-20T07:48:41;6.85;;;2.90;;
61702;SDS011;47622;47.726;3.298;2023-05-20T07:51:07;6.18;;;3.10;;
61702;SDS011;47622;47.726;3.298;2023-05-20T07:53:33;8.70;;;2.92;;
61702;SDS011;47622;47.726;3.298;2023-05-20T07:55:58;6.85;;;3.03;;
61702;SDS011;47622;47.726;3.298;2023-05-20T07:58:24;7.25;;;2.80;;
61702;SDS011;47622;47.726;3.298;2023-05-20T08:00:49;5.30;;;3.20;;
61702;SDS011;47622;47.726;3.298;2023-05-20T08:03:15;5.68;;;2.80;;
61702;SDS011;47622;47.726;3.298;2023-05-20T08:05:41;14.23;;;2.83;;
61702;SDS011;47622;47.726;3.298;2023-05-20T08:08:06;4.22;;;2.70;;
61702;SDS011;47622;47.726;3.298;2023-05-20T08:10:34;5.03;;;3.25;;
61702;SDS011;47622;47.726;3.298;2023-05-20T08:13:00;3.97;;;2.50;;
61702;SDS011;47622;47.726;3.298;2023-05-20T08:15:26;3.65;;;2.58;;
61702;SDS011;47622;47.726;3.298;2023-05-20T08:17:51;5.03;;;2.80;;
61702;SDS011;47622;47.726;3.298;2023-05-20T08:20:18;5.72;;;2.80;;
61702;SDS011;47622;47.726;3.298;2023-05-20T08:22:44;4.25;;;2.83;;
61702;SDS011;47622;47.726;3.298;2023-05-20T08:25:09;6.38;;;2.92;;
61702;SDS011;47622;47.726;3.298;2023-05-20T08:27:35;3.67;;;2.78;;
61702;SDS011;47622;47.726;3.298;2023-05-20T08:30:02;7.20;;;3.22;;
61702;SDS011;47622;47.726;3.298;2023-05-20T08:32:28;4.50;;;3.28;;
61702;SDS011;47622;47.726;3.298;2023-05-20T08:34:53;4.13;;;2.47;;
61702;SDS011;47622;47.726;3.298;2023-05-20T08:37:19;6.55;;;2.83;;
61702;SDS011;47622;47.726;3.298;2023-05-20T08:39:45;6.38;;;2.72;;
61702;SDS011;47622;47.726;3.298;2023-05-20T08:42:12;6.80;;;2.72;;
61702;SDS011;47622;47.726;3.298;2023-05-20T08:44:37;3.35;;;2.38;;
61702;SDS011;47622;47.726;3.298;2023-05-20T08:47:06;4.82;;;3.05;;
61702;SDS011;47622;47.726;3.298;2023-05-20T08:49:34;6.82;;;2.72;;
61702;SDS011;47622;47.726;3.298;2023-05-20T08:51:59;5.40;;;2.90;;
61702;SDS011;47622;47.726;3.298;2023-05-20T08:54:26;7.45;;;2.88;;
61702;SDS011;47622;47.726;3.298;2023-05-20T08:57:05;7.68;;;2.65;;
61702;SDS011;47622;47.726;3.298;2023-05-20T08:59:32;6.18;;;3.17;;
61702;SDS011;47622;47.726;3.298;2023-05-20T09:01:58;5.22;;;3.08;;
61702;SDS011;47622;47.726;3.298;2023-05-20T09:04:24;3.67;;;2.88;;
61702;SDS011;47622;47.726;3.298;2023-05-20T09:06:49;8.57;;;2.90;;
61702;SDS011;47622;47.726;3.298;2023-05-20T09:09:15;6.07;;;3.05;;
61702;SDS011;47622;47.726;3.298;2023-05-20T09:11:41;5.10;;;2.90;;
61702;SDS011;47622;47.726;3.298;2023-05-20T09:14:08;7.78;;;2.95;;
61702;SDS011;47622;47.726;3.298;2023-05-20T09:16:34;5.40;;;2.90;;
61702;SDS011;47622;47.726;3.298;2023-05-20T09:19:00;5.72;;;3.30;;
61702;SDS011;47622;47.726;3.298;2023-05-20T09:21:26;6.30;;;3.28;;
61702;SDS011;47622;47.726;3.298;2023-05-20T09:23:52;5.82;;;3.47;;
61702;SDS011;47622;47.726;3.298;2023-05-20T09:26:18;5.90;;;3.25;;
61702;SDS011;47622;47.726;3.298;2023-05-20T09:28:44;5.05;;;4.13;;
61702;SDS011;47622;47.726;3.298;2023-05-20T09:31:12;7.05;;;3.03;;
61702;SDS011;47622;47.726;3.298;2023-05-20T09:33:38;5.55;;;2.72;;
61702;SDS011;47622;47.726;3.298;2023-05-20T09:36:08;5.22;;;3.17;;
61702;SDS011;47622;47.726;3.298;2023-05-20T09:38:37;5.18;;;3.30;;
61702;SDS011;47622;47.726;3.298;2023-05-20T09:41:09;5.13;;;3.20;;
61702;SDS011;47622;47.726;3.298;2023-05-20T09:43:37;6.15;;;2.80;;
61702;SDS011;47622;47.726;3.298;2023-05-20T09:46:04;3.53;;;2.88;;
61702;SDS011;47622;47.726;3.298;2023-05-20T09:48:31;4.53;;;3.08;;
61702;SDS011;47622;47.726;3.298;2023-05-20T09:51:00;5.60;;;3.22;;
61702;SDS011;47622;47.726;3.298;2023-05-20T09:53:28;5.93;;;3.13;;
61702;SDS011;47622;47.726;3.298;2023-05-20T09:55:55;7.32;;;3.13;;
61702;SDS011;47622;47.726;3.298;2023-05-20T09:58:21;4.68;;;3.03;;
61702;SDS011;47622;47.726;3.298;2023-05-20T10:00:48;6.03;;;3.47;;
61702;SDS011;47622;47.726;3.298;2023-05-20T10:03:13;6.47;;;3.00;;
61702;SDS011;47622;47.726;3.298;2023-05-20T10:05:51;7.60;;;3.30;;
61702;SDS011;47622;47.726;3.298;2023-05-20T10:11:18;3.35;;;2.67;;
61702;SDS011;47622;47.726;3.298;2023-05-20T10:19:34;5.22;;;2.58;;
61702;SDS011;47622;47.726;3.298;2023-05-20T10:22:00;6.90;;;3.38;;
61702;SDS011;47622;47.726;3.298;2023-05-20T10:26:58;4.82;;;2.90;;
61702;SDS011;47622;47.726;3.298;2023-05-20T10:29:25;8.30;;;3.15;;
61702;SDS011;47622;47.726;3.298;2023-05-20T10:31:51;4.72;;;3.08;;
61702;SDS011;47622;47.726;3.298;2023-05-20T10:34:18;5.68;;;2.85;;
61702;SDS011;47622;47.726;3.298;2023-05-20T10:36:46;5.85;;;3.28;;
61702;SDS011;47622;47.726;3.298;2023-05-20T10:39:28;5.95;;;4.13;;
61702;SDS011;47622;47.726;3.298;2023-05-20T10:42:10;6.75;;;3.50;;
61702;SDS011;47622;47.726;3.298;2023-05-20T10:44:43;5.18;;;3.33;;
61702;SDS011;47622;47.726;3.298;2023-05-20T10:47:11;5.78;;;3.25;;
61702;SDS011;47622;47.726;3.298;2023-05-20T10:49:43;5.07;;;3.05;;
61702;SDS011;47622;47.726;3.298;2023-05-20T10:52:12;4.53;;;2.55;;
61702;SDS011;47622;47.726;3.298;2023-05-20T10:54:45;2.92;;;2.60;;
61702;SDS011;47622;47.726;3.298;2023-05-20T10:57:12;3.03;;;2.40;;
61702;SDS011;47622;47.726;3.298;2023-05-20T10:59:38;5.38;;;2.95;;
61702;SDS011;47622;47.726;3.298;2023-05-20T11:02:04;3.92;;;2.50;;
61702;SDS011;47622;47.726;3.298;2023-05-20T11:04:30;3.83;;;2.67;;
61702;SDS011;47622;47.726;3.298;2023-05-20T11:06:56;7.53;;;2.78;;
61702;SDS011;47622;47.726;3.298;2023-05-20T11:09:23;3.70;;;2.70;;
61702;SDS011;47622;47.726;3.298;2023-05-20T11:11:49;6.97;;;2.70;;
61702;SDS011;47622;47.726;3.298;2023-05-20T11:14:15;4.72;;;2.80;;
61702;SDS011;47622;47.726;3.298;2023-05-20T11:16:42;4.15;;;2.65;;
61702;SDS011;47622;47.726;3.298;2023-05-20T11:19:14;7.97;;;2.63;;
61702;SDS011;47622;47.726;3.298;2023-05-20T11:21:47;4.20;;;2.70;;
61702;SDS011;47622;47.726;3.298;2023-05-20T11:24:12;5.10;;;2.70;;
61702;SDS011;47622;47.726;3.298;2023-05-20T11:26:39;4.10;;;2.80;;
61702;SDS011;47622;47.726;3.298;2023-05-20T11:29:05;4.82;;;2.70;;
61702;SDS011;47622;47.726;3.298;2023-05-20T11:31:31;8.48;;;2.72;;
61702;SDS011;47622;47.726;3.298;2023-05-20T11:33:59;3.42;;;2.50;;
61702;SDS011;47622;47.726;3.298;2023-05-20T11:36:26;6.10;;;2.40;;
61702;SDS011;47622;47.726;3.298;2023-05-20T11:38:56;3.90;;;2.20;;
61702;SDS011;47622;47.726;3.298;2023-05-20T11:41:23;4.22;;;2.40;;
61702;SDS011;47622;47.726;3.298;2023-05-20T11:43:56;6.65;;;2.53;;
61702;SDS011;47622;47.726;3.298;2023-05-20T11:46:23;5.65;;;2.30;;
61702;SDS011;47622;47.726;3.298;2023-05-20T11:48:50;6.95;;;2.80;;
61702;SDS011;47622;47.726;3.298;2023-05-20T11:51:17;4.35;;;2.67;;
61702;SDS011;47622;47.726;3.298;2023-05-20T11:53:43;5.10;;;2.70;;
61702;SDS011;47622;47.726;3.298;2023-05-20T11:56:11;4.03;;;2.60;;
61702;SDS011;47622;47.726;3.298;2023-05-20T11:58:38;8.55;;;2.63;;
61702;SDS011;47622;47.726;3.298;2023-05-20T12:01:04;4.22;;;2.53;;
61702;SDS011;47622;47.726;3.298;2023-05-20T12:03:29;5.68;;;2.60;;
61702;SDS011;47622;47.726;3.298;2023-05-20T12:05:56;4.13;;;2.50;;
61702;SDS011;47622;47.726;3.298;2023-05-20T12:08:25;4.15;;;2.33;;
61702;SDS011;47622;47.726;3.298;2023-05-20T12:10:50;8.52;;;3.25;;
61702;SDS011;47622;47.726;3.298;2023-05-20T12:13:16;7.95;;;3.10;;
61702;SDS011;47622;47.726;3.298;2023-05-20T12:15:43;3.38;;;2.45;;
61702;SDS011;47622;47.726;3.298;2023-05-20T12:18:08;7.45;;;2.75;;
61702;SDS011;47622;47.726;3.298;2023-05-20T12:20:35;4.45;;;2.63;;
61702;SDS011;47622;47.726;3.298;2023-05-20T12:23:01;7.38;;;2.67;;
61702;SDS011;47622;47.726;3.298;2023-05-20T12:25:27;4.38;;;2.35;;
61702;SDS011;47622;47.726;3.298;2023-05-20T12:27:53;6.47;;;2.50;;
61702;SDS011;47622;47.726;3.298;2023-05-20T12:30:19;4.88;;;2.40;;
61702;SDS011;47622;47.726;3.298;2023-05-20T12:32:46;5.22;;;2.60;;
61702;SDS011;47622;47.726;3.298;2023-05-20T12:35:14;5.25;;;2.63;;
61702;SDS011;47622;47.726;3.298;2023-05-20T12:37:39;3.95;;;2.97;;
61702;SDS011;47622;47.726;3.298;2023-05-20T12:40:07;5.40;;;2.72;;
61702;SDS011;47622;47.726;3.298;2023-05-20T12:42:37;4.72;;;2.47;;
61702;SDS011;47622;47.726;3.298;2023-05-20T12:45:04;3.97;;;2.70;;
61702;SDS011;47622;47.726;3.298;2023-05-20T12:47:30;5.47;;;2.60;;
61702;SDS011;47622;47.726;3.298;2023-05-20T12:49:56;4.20;;;2.50;;
61702;SDS011;47622;47.726;3.298;2023-05-20T12:52:24;4.57;;;2.88;;
61702;SDS011;47622;47.726;3.298;2023-05-20T12:54:50;4.47;;;2.53;;
61702;SDS011;47622;47.726;3.298;2023-05-20T12:57:17;7.18;;;2.83;;
61702;SDS011;47622;47.726;3.298;2023-05-20T12:59:43;6.85;;;2.78;;
61702;SDS011;47622;47.726;3.298;2023-05-20T13:02:09;7.20;;;3.30;;
61702;SDS011;47622;47.726;3.298;2023-05-20T13:04:35;4.93;;;2.30;;
61702;SDS011;47622;47.726;3.298;2023-05-20T13:07:01;4.55;;;2.70;;
61702;SDS011;47622;47.726;3.298;2023-05-20T13:09:27;6.38;;;2.67;;
61702;SDS011;47622;47.726;3.298;2023-05-20T13:11:54;5.03;;;2.35;;
61702;SDS011;47622;47.726;3.298;2023-05-20T13:14:20;3.88;;;2.60;;
61702;SDS011;47622;47.726;3.298;2023-05-20T13:16:45;5.38;;;2.65;;
61702;SDS011;47622;47.726;3.298;2023-05-20T13:19:19;3.50;;;2.90;;
61702;SDS011;47622;47.726;3.298;2023-05-20T13:21:46;4.57;;;2.75;;
61702;SDS011;47622;47.726;3.298;2023-05-20T13:24:12;4.70;;;2.70;;
61702;SDS011;47622;47.726;3.298;2023-05-20T13:26:38;6.18;;;2.80;;
61702;SDS011;47622;47.726;3.298;2023-05-20T13:29:03;5.20;;;2.60;;
61702;SDS011;47622;47.726;3.298;2023-05-20T13:31:29;4.65;;;2.40;;
61702;SDS011;47622;47.726;3.298;2023-05-20T13:33:56;3.20;;;2.47;;
61702;SDS011;47622;47.726;3.298;2023-05-20T13:36:24;6.47;;;2.63;;
61702;SDS011;47622;47.726;3.298;2023-05-20T13:38:50;3.60;;;2.50;;
61702;SDS011;47622;47.726;3.298;2023-05-20T13:41:17;5.43;;;2.88;;
61702;SDS011;47622;47.726;3.298;2023-05-20T13:43:44;4.40;;;2.50;;
61702;SDS011;47622;47.726;3.298;2023-05-20T13:46:09;5.38;;;2.55;;
61702;SDS011;47622;47.726;3.298;2023-05-20T13:48:35;5.47;;;2.42;;
61702;SDS011;47622;47.726;3.298;2023-05-20T13:51:00;3.65;;;2.50;;
61702;SDS011;47622;47.726;3.298;2023-05-20T13:53:26;6.38;;;2.60;;
61702;SDS011;47622;47.726;3.298;2023-05-20T13:55:52;4.75;;;2.75;;
61702;SDS011;47622;47.726;3.298;2023-05-20T13:58:18;4.45;;;2.33;;
61702;SDS011;47622;47.726;3.298;2023-05-20T14:00:44;4.32;;;2.70;;
61702;SDS011;47622;47.726;3.298;2023-05-20T14:03:10;4.53;;;2.42;;
61702;SDS011;47622;47.726;3.298;2023-05-20T14:05:35;5.70;;;2.58;;
61702;SDS011;47622;47.726;3.298;2023-05-20T14:08:01;4.50;;;2.72;;
61702;SDS011;47622;47.726;3.298;2023-05-20T14:10:27;5.20;;;2.60;;
61702;SDS011;47622;47.726;3.298;2023-05-20T14:12:53;3.53;;;2.80;;
61702;SDS011;47622;47.726;3.298;2023-05-20T14:15:19;3.50;;;2.42;;
61702;SDS011;47622;47.726;3.298;2023-05-20T14:17:46;4.93;;;2.75;;
61702;SDS011;47622;47.726;3.298;2023-05-20T14:20:11;3.90;;;2.70;;
61702;SDS011;47622;47.726;3.298;2023-05-20T14:22:37;5.45;;;3.35;;
61702;SDS011;47622;47.726;3.298;2023-05-20T14:25:03;3.38;;;2.38;;
61702;SDS011;47622;47.726;3.298;2023-05-20T14:27:29;4.72;;;2.38;;
61702;SDS011;47622;47.726;3.298;2023-05-20T14:29:54;5.53;;;2.80;;
61702;SDS011;47622;47.726;3.298;2023-05-20T14:32:20;6.57;;;2.50;;
61702;SDS011;47622;47.726;3.298;2023-05-20T14:34:45;4.22;;;2.45;;
61702;SDS011;47622;47.726;3.298;2023-05-20T14:37:11;4.60;;;2.30;;
61702;SDS011;47622;47.726;3.298;2023-05-20T14:39:37;3.47;;;2.70;;
61702;SDS011;47622;47.726;3.298;2023-05-20T14:42:03;5.60;;;2.20;;
61702;SDS011;47622;47.726;3.298;2023-05-20T14:44:30;6.07;;;2.70;;
61702;SDS011;47622;47.726;3.298;2023-05-20T14:46:55;4.15;;;2.70;;
61702;SDS011;47622;47.726;3.298;2023-05-20T14:49:22;5.60;;;2.50;;
61702;SDS011;47622;47.726;3.298;2023-05-20T14:51:48;5.85;;;2.40;;
61702;SDS011;47622;47.726;3.298;2023-05-20T14:54:15;4.88;;;2.22;;
61702;SDS011;47622;47.726;3.298;2023-05-20T14:56:43;4.07;;;2.33;;
61702;SDS011;47622;47.726;3.298;2023-05-20T14:59:09;4.78;;;2.35;;